sensor_id;sensor_type;location;lat;lon;timestamp;P1;durP1;ratioP1;P2;durP2;ratioP2
61330;SDS011;57640;52.472;-1.950;2023-04-19T00:00:06;4.63;;;3.58;;
61330;SDS011;57640;52.472;-1.950;2023-04-19T00:03:13;4.97;;;3.28;;
61330;SDS011;57640;52.472;-1.950;2023-04-19T00:06:21;6.35;;;3.80;;
61330;SDS011;57640;52.472;-1.950;2023-04-19T00:09:27;4.93;;;3.58;;
61330;SDS011;57640;52.472;-1.950;2023-04-19T00:12:32;3.38;;;3.00;;
61330;SDS011;57640;52.472;-1.950;2023-04-19T00:15:37;5.53;;;3.50;;
61330;SDS011;57640;52.472;-1.950;2023-04-19T00:18:43;3.47;;;2.90;;
61330;SDS011;57640;52.472;-1.950;2023-04-19T00:21:52;4.25;;;3.00;;
61330;SDS011;57640;52.472;-1.950;2023-04-19T00:24:57;4.38;;;3.25;;
61330;SDS011;57640;52.472;-1.950;2023-04-19T00:28:03;4.25;;;3.35;;
61330;SDS011;57640;52.472;-1.950;2023-04-19T00:31:08;4.75;;;3.20;;
61330;SDS011;57640;52.472;-1.950;2023-04-19T00:34:14;5.45;;;3.40;;
61330;SDS011;57640;52.472;-1.950;2023-04-19T00:37:22;5.45;;;3.13;;
61330;SDS011;57640;52.472;-1.950;2023-04-19T00:40:27;4.53;;;3.47;;
61330;SDS011;57640;52.472;-1.950;2023-04-19T00:43:32;5.60;;;3.85;;
61330;SDS011;57640;52.472;-1.950;2023-04-19T00:46:38;3.58;;;2.97;;
61330;SDS011;57640;52.472;-1.950;2023-04-19T00:49:44;4.82;;;3.20;;
61330;SDS011;57640;52.472;-1.950;2023-04-19T00:52:52;5.32;;;3.10;;
61330;SDS011;57640;52.472;-1.950;2023-04-19T00:55:59;5.03;;;3.65;;
61330;SDS011;57640;52.472;-1.950;2023-04-19T00:59:08;4.75;;;3.20;;
61330;SDS011;57640;52.472;-1.950;2023-04-19T01:02:14;5.38;;;3.38;;
61330;SDS011;57640;52.472;-1.950;2023-04-19T01:05:19;5.10;;;3.30;;
61330;SDS011;57640;52.472;-1.950;2023-04-19T01:08:27;3.67;;;3.15;;
61330;SDS011;57640;52.472;-1.950;2023-04-19T01:11:32;4.57;;;3.40;;
61330;SDS011;57640;52.472;-1.950;2023-04-19T01:14:38;5.65;;;3.47;;
61330;SDS011;57640;52.472;-1.950;2023-04-19T01:17:43;4.05;;;3.20;;
61330;SDS011;57640;52.472;-1.950;2023-04-19T01:20:49;3.40;;;2.80;;
61330;SDS011;57640;52.472;-1.950;2023-04-19T01:23:56;4.15;;;3.25;;
61330;SDS011;57640;52.472;-1.950;2023-04-19T01:27:02;4.32;;;3.05;;
61330;SDS011;57640;52.472;-1.950;2023-04-19T01:30:08;4.60;;;3.47;;
61330;SDS011;57640;52.472;-1.950;2023-04-19T01:33:14;3.70;;;3.28;;
61330;SDS011;57640;52.472;-1.950;2023-04-19T01:36:19;4.78;;;3.40;;
61330;SDS011;57640;52.472;-1.950;2023-04-19T01:39:27;5.00;;;3.25;;
61330;SDS011;57640;52.472;-1.950;2023-04-19T01:42:32;4.53;;;3.60;;
61330;SDS011;57640;52.472;-1.950;2023-04-19T01:45:38;4.40;;;3.03;;
61330;SDS011;57640;52.472;-1.950;2023-04-19T01:48:43;4.28;;;3.22;;
61330;SDS011;57640;52.472;-1.950;2023-04-19T01:51:48;4.28;;;3.30;;
61330;SDS011;57640;52.472;-1.950;2023-04-19T01:54:56;5.47;;;3.40;;
61330;SDS011;57640;52.472;-1.950;2023-04-19T01:58:02;4.82;;;3.17;;
61330;SDS011;57640;52.472;-1.950;2023-04-19T02:01:07;5.00;;;3.17;;
61330;SDS011;57640;52.472;-1.950;2023-04-19T02:04:14;6.65;;;3.75;;
61330;SDS011;57640;52.472;-1.950;2023-04-19T02:07:19;4.32;;;3.60;;
61330;SDS011;57640;52.472;-1.950;2023-04-19T02:10:27;4.78;;;3.67;;
61330;SDS011;57640;52.472;-1.950;2023-04-19T02:13:32;4.28;;;3.35;;
61330;SDS011;57640;52.472;-1.950;2023-04-19T02:16:38;4.53;;;3.42;;
61330;SDS011;57640;52.472;-1.950;2023-04-19T02:19:43;3.90;;;3.40;;
61330;SDS011;57640;52.472;-1.950;2023-04-19T02:22:48;3.83;;;2.95;;
61330;SDS011;57640;52.472;-1.950;2023-04-19T02:25:56;4.35;;;3.30;;
61330;SDS011;57640;52.472;-1.950;2023-04-19T02:29:04;4.20;;;3.40;;
61330;SDS011;57640;52.472;-1.950;2023-04-19T02:32:10;5.63;;;3.85;;
61330;SDS011;57640;52.472;-1.950;2023-04-19T02:35:16;6.80;;;3.92;;
61330;SDS011;57640;52.472;-1.950;2023-04-19T02:38:21;5.28;;;3.55;;
61330;SDS011;57640;52.472;-1.950;2023-04-19T02:41:29;5.40;;;3.53;;
61330;SDS011;57640;52.472;-1.950;2023-04-19T02:44:34;5.00;;;3.33;;
61330;SDS011;57640;52.472;-1.950;2023-04-19T02:47:40;4.10;;;3.25;;
61330;SDS011;57640;52.472;-1.950;2023-04-19T02:50:47;6.03;;;3.70;;
61330;SDS011;57640;52.472;-1.950;2023-04-19T02:53:52;5.10;;;3.42;;
61330;SDS011;57640;52.472;-1.950;2023-04-19T02:57:00;3.65;;;3.28;;
61330;SDS011;57640;52.472;-1.950;2023-04-19T03:00:06;6.13;;;4.15;;
61330;SDS011;57640;52.472;-1.950;2023-04-19T03:03:12;4.35;;;3.30;;
61330;SDS011;57640;52.472;-1.950;2023-04-19T03:06:18;5.45;;;3.42;;
61330;SDS011;57640;52.472;-1.950;2023-04-19T03:09:23;4.97;;;3.58;;
61330;SDS011;57640;52.472;-1.950;2023-04-19T03:12:31;3.83;;;3.13;;
61330;SDS011;57640;52.472;-1.950;2023-04-19T03:15:36;4.60;;;3.72;;
61330;SDS011;57640;52.472;-1.950;2023-04-19T03:18:42;4.38;;;3.58;;
61330;SDS011;57640;52.472;-1.950;2023-04-19T03:21:47;4.25;;;3.40;;
61330;SDS011;57640;52.472;-1.950;2023-04-19T03:24:52;4.25;;;3.22;;
61330;SDS011;57640;52.472;-1.950;2023-04-19T03:28:01;4.85;;;3.78;;
61330;SDS011;57640;52.472;-1.950;2023-04-19T03:31:06;4.15;;;3.65;;
61330;SDS011;57640;52.472;-1.950;2023-04-19T03:34:11;5.47;;;3.50;;
61330;SDS011;57640;52.472;-1.950;2023-04-19T03:37:17;5.47;;;3.90;;
61330;SDS011;57640;52.472;-1.950;2023-04-19T03:40:22;4.47;;;3.30;;
61330;SDS011;57640;52.472;-1.950;2023-04-19T03:43:30;4.72;;;3.53;;
61330;SDS011;57640;52.472;-1.950;2023-04-19T03:46:35;4.55;;;3.72;;
61330;SDS011;57640;52.472;-1.950;2023-04-19T03:49:41;4.32;;;3.22;;
61330;SDS011;57640;52.472;-1.950;2023-04-19T03:52:46;4.43;;;3.30;;
61330;SDS011;57640;52.472;-1.950;2023-04-19T03:55:51;4.20;;;3.50;;
61330;SDS011;57640;52.472;-1.950;2023-04-19T03:58:59;4.65;;;3.88;;
61330;SDS011;57640;52.472;-1.950;2023-04-19T04:02:05;3.67;;;3.28;;
61330;SDS011;57640;52.472;-1.950;2023-04-19T04:05:10;7.53;;;3.75;;
61330;SDS011;57640;52.472;-1.950;2023-04-19T04:08:15;5.05;;;3.40;;
61330;SDS011;57640;52.472;-1.950;2023-04-19T04:11:21;5.47;;;3.80;;
61330;SDS011;57640;52.472;-1.950;2023-04-19T04:14:29;4.80;;;3.45;;
61330;SDS011;57640;52.472;-1.950;2023-04-19T04:17:35;4.88;;;3.67;;
61330;SDS011;57640;52.472;-1.950;2023-04-19T04:20:42;4.47;;;3.47;;
61330;SDS011;57640;52.472;-1.950;2023-04-19T04:23:47;4.15;;;3.47;;
61330;SDS011;57640;52.472;-1.950;2023-04-19T04:26:52;4.97;;;3.67;;
61330;SDS011;57640;52.472;-1.950;2023-04-19T04:30:01;5.75;;;3.78;;
61330;SDS011;57640;52.472;-1.950;2023-04-19T04:33:07;4.97;;;3.97;;
61330;SDS011;57640;52.472;-1.950;2023-04-19T04:36:13;4.63;;;4.13;;
61330;SDS011;57640;52.472;-1.950;2023-04-19T04:39:18;5.32;;;3.80;;
61330;SDS011;57640;52.472;-1.950;2023-04-19T04:42:24;5.20;;;3.40;;
61330;SDS011;57640;52.472;-1.950;2023-04-19T04:45:31;5.18;;;3.55;;
61330;SDS011;57640;52.472;-1.950;2023-04-19T04:48:37;4.63;;;3.50;;
61330;SDS011;57640;52.472;-1.950;2023-04-19T04:51:42;3.80;;;3.40;;
61330;SDS011;57640;52.472;-1.950;2023-04-19T04:54:47;3.78;;;3.15;;
61330;SDS011;57640;52.472;-1.950;2023-04-19T04:57:53;4.53;;;3.88;;
61330;SDS011;57640;52.472;-1.950;2023-04-19T05:01:01;6.20;;;4.00;;
61330;SDS011;57640;52.472;-1.950;2023-04-19T05:04:06;5.13;;;3.83;;
61330;SDS011;57640;52.472;-1.950;2023-04-19T05:07:11;4.47;;;3.83;;
61330;SDS011;57640;52.472;-1.950;2023-04-19T05:10:17;4.43;;;3.80;;
61330;SDS011;57640;52.472;-1.950;2023-04-19T05:13:22;5.50;;;4.00;;
61330;SDS011;57640;52.472;-1.950;2023-04-19T05:16:31;5.32;;;3.90;;
61330;SDS011;57640;52.472;-1.950;2023-04-19T05:22:41;5.70;;;3.75;;
61330;SDS011;57640;52.472;-1.950;2023-04-19T05:25:47;4.50;;;3.92;;
61330;SDS011;57640;52.472;-1.950;2023-04-19T05:28:52;4.25;;;3.53;;
61330;SDS011;57640;52.472;-1.950;2023-04-19T05:32:00;6.22;;;3.80;;
61330;SDS011;57640;52.472;-1.950;2023-04-19T05:35:06;5.22;;;4.00;;
61330;SDS011;57640;52.472;-1.950;2023-04-19T05:38:12;4.35;;;3.30;;
61330;SDS011;57640;52.472;-1.950;2023-04-19T05:41:18;5.50;;;4.13;;
61330;SDS011;57640;52.472;-1.950;2023-04-19T05:44:24;5.13;;;3.85;;
61330;SDS011;57640;52.472;-1.950;2023-04-19T05:47:34;4.75;;;3.55;;
61330;SDS011;57640;52.472;-1.950;2023-04-19T05:50:42;4.47;;;3.80;;
61330;SDS011;57640;52.472;-1.950;2023-04-19T05:53:48;4.22;;;3.60;;
61330;SDS011;57640;52.472;-1.950;2023-04-19T05:56:54;5.50;;;3.78;;
61330;SDS011;57640;52.472;-1.950;2023-04-19T05:59:59;4.80;;;3.80;;
61330;SDS011;57640;52.472;-1.950;2023-04-19T06:03:08;5.93;;;3.97;;
61330;SDS011;57640;52.472;-1.950;2023-04-19T06:06:13;6.55;;;4.50;;
61330;SDS011;57640;52.472;-1.950;2023-04-19T06:09:18;4.53;;;3.80;;
61330;SDS011;57640;52.472;-1.950;2023-04-19T06:12:23;5.70;;;4.28;;
61330;SDS011;57640;52.472;-1.950;2023-04-19T06:15:29;4.40;;;3.85;;
61330;SDS011;57640;52.472;-1.950;2023-04-19T06:18:37;5.35;;;3.95;;
61330;SDS011;57640;52.472;-1.950;2023-04-19T06:21:44;4.90;;;4.10;;
61330;SDS011;57640;52.472;-1.950;2023-04-19T06:24:50;4.57;;;3.63;;
61330;SDS011;57640;52.472;-1.950;2023-04-19T06:27:56;4.78;;;3.80;;
61330;SDS011;57640;52.472;-1.950;2023-04-19T06:31:01;4.50;;;3.60;;
61330;SDS011;57640;52.472;-1.950;2023-04-19T06:34:09;4.57;;;3.80;;
61330;SDS011;57640;52.472;-1.950;2023-04-19T06:37:14;5.10;;;4.25;;
61330;SDS011;57640;52.472;-1.950;2023-04-19T06:40:20;5.35;;;4.18;;
61330;SDS011;57640;52.472;-1.950;2023-04-19T06:43:25;4.28;;;3.88;;
61330;SDS011;57640;52.472;-1.950;2023-04-19T06:46:31;5.13;;;4.05;;
61330;SDS011;57640;52.472;-1.950;2023-04-19T06:49:38;4.45;;;3.63;;
61330;SDS011;57640;52.472;-1.950;2023-04-19T06:52:44;6.47;;;3.70;;
61330;SDS011;57640;52.472;-1.950;2023-04-19T06:55:52;5.43;;;4.00;;
61330;SDS011;57640;52.472;-1.950;2023-04-19T06:58:57;4.65;;;3.60;;
61330;SDS011;57640;52.472;-1.950;2023-04-19T07:02:03;6.28;;;3.67;;
61330;SDS011;57640;52.472;-1.950;2023-04-19T07:05:11;5.13;;;4.28;;
61330;SDS011;57640;52.472;-1.950;2023-04-19T07:08:16;9.30;;;4.18;;
61330;SDS011;57640;52.472;-1.950;2023-04-19T07:11:22;6.30;;;4.07;;
61330;SDS011;57640;52.472;-1.950;2023-04-19T07:14:27;6.03;;;4.20;;
61330;SDS011;57640;52.472;-1.950;2023-04-19T07:17:33;5.57;;;4.32;;
61330;SDS011;57640;52.472;-1.950;2023-04-19T07:20:41;5.25;;;4.03;;
61330;SDS011;57640;52.472;-1.950;2023-04-19T07:23:49;6.03;;;4.38;;
61330;SDS011;57640;52.472;-1.950;2023-04-19T07:26:55;14.60;;;4.38;;
61330;SDS011;57640;52.472;-1.950;2023-04-19T07:30:00;7.50;;;4.15;;
61330;SDS011;57640;52.472;-1.950;2023-04-19T07:33:06;7.75;;;4.63;;
61330;SDS011;57640;52.472;-1.950;2023-04-19T07:36:14;15.98;;;4.65;;
61330;SDS011;57640;52.472;-1.950;2023-04-19T07:39:20;6.63;;;4.60;;
61330;SDS011;57640;52.472;-1.950;2023-04-19T07:42:25;6.45;;;4.30;;
61330;SDS011;57640;52.472;-1.950;2023-04-19T07:45:31;7.30;;;4.68;;
61330;SDS011;57640;52.472;-1.950;2023-04-19T07:48:36;10.48;;;4.90;;
61330;SDS011;57640;52.472;-1.950;2023-04-19T07:51:44;6.70;;;4.80;;
61330;SDS011;57640;52.472;-1.950;2023-04-19T07:54:50;5.40;;;4.10;;
61330;SDS011;57640;52.472;-1.950;2023-04-19T07:57:55;9.93;;;4.70;;
61330;SDS011;57640;52.472;-1.950;2023-04-19T08:01:03;6.13;;;4.82;;
61330;SDS011;57640;52.472;-1.950;2023-04-19T08:04:09;6.22;;;4.57;;
61330;SDS011;57640;52.472;-1.950;2023-04-19T08:07:17;6.80;;;4.43;;
61330;SDS011;57640;52.472;-1.950;2023-04-19T08:10:23;7.35;;;4.70;;
61330;SDS011;57640;52.472;-1.950;2023-04-19T08:13:30;6.43;;;4.90;;
61330;SDS011;57640;52.472;-1.950;2023-04-19T08:16:35;6.90;;;4.80;;
61330;SDS011;57640;52.472;-1.950;2023-04-19T08:19:40;7.22;;;4.70;;
61330;SDS011;57640;52.472;-1.950;2023-04-19T08:22:48;7.22;;;5.00;;
61330;SDS011;57640;52.472;-1.950;2023-04-19T08:25:54;6.30;;;4.80;;
61330;SDS011;57640;52.472;-1.950;2023-04-19T08:28:59;6.90;;;4.68;;
61330;SDS011;57640;52.472;-1.950;2023-04-19T08:32:04;6.50;;;4.20;;
61330;SDS011;57640;52.472;-1.950;2023-04-19T08:35:10;6.45;;;4.10;;
61330;SDS011;57640;52.472;-1.950;2023-04-19T08:38:18;6.32;;;4.57;;
61330;SDS011;57640;52.472;-1.950;2023-04-19T08:41:23;7.20;;;4.88;;
61330;SDS011;57640;52.472;-1.950;2023-04-19T08:44:29;6.93;;;4.78;;
61330;SDS011;57640;52.472;-1.950;2023-04-19T08:47:35;9.93;;;4.85;;
61330;SDS011;57640;52.472;-1.950;2023-04-19T08:50:41;9.43;;;5.15;;
61330;SDS011;57640;52.472;-1.950;2023-04-19T08:53:49;8.15;;;4.57;;
61330;SDS011;57640;52.472;-1.950;2023-04-19T08:56:56;5.45;;;4.30;;
61330;SDS011;57640;52.472;-1.950;2023-04-19T09:00:03;5.25;;;3.97;;
61330;SDS011;57640;52.472;-1.950;2023-04-19T09:03:12;5.55;;;4.00;;
61330;SDS011;57640;52.472;-1.950;2023-04-19T09:06:17;7.18;;;4.43;;
61330;SDS011;57640;52.472;-1.950;2023-04-19T09:09:26;6.88;;;4.65;;
61330;SDS011;57640;52.472;-1.950;2023-04-19T09:12:32;5.97;;;4.80;;
61330;SDS011;57640;52.472;-1.950;2023-04-19T09:15:38;5.50;;;4.40;;
61330;SDS011;57640;52.472;-1.950;2023-04-19T09:18:52;6.15;;;4.15;;
61330;SDS011;57640;52.472;-1.950;2023-04-19T09:21:57;5.45;;;4.50;;
61330;SDS011;57640;52.472;-1.950;2023-04-19T09:25:25;7.78;;;5.07;;
61330;SDS011;57640;52.472;-1.950;2023-04-19T09:28:31;5.55;;;4.40;;
61330;SDS011;57640;52.472;-1.950;2023-04-19T09:31:36;9.25;;;6.05;;
61330;SDS011;57640;52.472;-1.950;2023-04-19T09:34:44;7.65;;;6.43;;
61330;SDS011;57640;52.472;-1.950;2023-04-19T09:37:57;8.85;;;7.25;;
61330;SDS011;57640;52.472;-1.950;2023-04-19T09:41:09;12.65;;;8.27;;
61330;SDS011;57640;52.472;-1.950;2023-04-19T09:44:14;11.45;;;8.13;;
61330;SDS011;57640;52.472;-1.950;2023-04-19T09:47:20;13.40;;;8.32;;
61330;SDS011;57640;52.472;-1.950;2023-04-19T09:50:26;11.25;;;8.20;;
61330;SDS011;57640;52.472;-1.950;2023-04-19T09:53:31;11.80;;;7.63;;
61330;SDS011;57640;52.472;-1.950;2023-04-19T09:56:40;13.60;;;9.35;;
61330;SDS011;57640;52.472;-1.950;2023-04-19T09:59:46;12.07;;;9.07;;
61330;SDS011;57640;52.472;-1.950;2023-04-19T10:02:51;13.27;;;10.35;;
61330;SDS011;57640;52.472;-1.950;2023-04-19T10:05:58;14.25;;;9.75;;
61330;SDS011;57640;52.472;-1.950;2023-04-19T10:09:04;13.52;;;9.70;;
61330;SDS011;57640;52.472;-1.950;2023-04-19T10:12:12;14.65;;;10.50;;
61330;SDS011;57640;52.472;-1.950;2023-04-19T10:15:19;11.98;;;9.02;;
61330;SDS011;57640;52.472;-1.950;2023-04-19T10:18:25;14.35;;;10.25;;
61330;SDS011;57640;52.472;-1.950;2023-04-19T10:21:31;12.38;;;8.60;;
61330;SDS011;57640;52.472;-1.950;2023-04-19T10:24:37;14.20;;;9.07;;
61330;SDS011;57640;52.472;-1.950;2023-04-19T10:27:44;12.23;;;8.90;;
61330;SDS011;57640;52.472;-1.950;2023-04-19T10:30:53;11.63;;;9.65;;
61330;SDS011;57640;52.472;-1.950;2023-04-19T10:33:58;11.52;;;9.15;;
61330;SDS011;57640;52.472;-1.950;2023-04-19T10:37:04;16.92;;;10.63;;
61330;SDS011;57640;52.472;-1.950;2023-04-19T10:40:21;13.23;;;9.63;;
61330;SDS011;57640;52.472;-1.950;2023-04-19T10:47:12;12.75;;;9.13;;
61330;SDS011;57640;52.472;-1.950;2023-04-19T10:50:17;10.95;;;8.43;;
61330;SDS011;57640;52.472;-1.950;2023-04-19T10:56:59;14.10;;;8.48;;
61330;SDS011;57640;52.472;-1.950;2023-04-19T11:00:21;15.13;;;8.95;;
61330;SDS011;57640;52.472;-1.950;2023-04-19T11:06:57;12.85;;;9.25;;
61330;SDS011;57640;52.472;-1.950;2023-04-19T11:10:03;11.38;;;8.40;;
61330;SDS011;57640;52.472;-1.950;2023-04-19T11:13:09;12.60;;;9.15;;
61330;SDS011;57640;52.472;-1.950;2023-04-19T11:16:16;12.35;;;8.73;;
61330;SDS011;57640;52.472;-1.950;2023-04-19T11:19:22;10.57;;;8.15;;
61330;SDS011;57640;52.472;-1.950;2023-04-19T11:22:30;9.10;;;6.88;;
61330;SDS011;57640;52.472;-1.950;2023-04-19T11:25:36;10.35;;;8.20;;
61330;SDS011;57640;52.472;-1.950;2023-04-19T11:28:41;13.10;;;9.23;;
61330;SDS011;57640;52.472;-1.950;2023-04-19T11:31:51;10.15;;;7.75;;
61330;SDS011;57640;52.472;-1.950;2023-04-19T11:34:56;12.50;;;8.32;;
61330;SDS011;57640;52.472;-1.950;2023-04-19T11:38:02;10.88;;;8.45;;
61330;SDS011;57640;52.472;-1.950;2023-04-19T11:41:07;11.52;;;8.93;;
61330;SDS011;57640;52.472;-1.950;2023-04-19T11:44:13;13.55;;;9.10;;
61330;SDS011;57640;52.472;-1.950;2023-04-19T11:47:23;11.35;;;8.50;;
61330;SDS011;57640;52.472;-1.950;2023-04-19T11:50:29;12.57;;;8.43;;
61330;SDS011;57640;52.472;-1.950;2023-04-19T11:53:35;13.80;;;9.27;;
61330;SDS011;57640;52.472;-1.950;2023-04-19T12:00:01;12.45;;;9.63;;
61330;SDS011;57640;52.472;-1.950;2023-04-19T12:03:09;12.98;;;9.98;;
61330;SDS011;57640;52.472;-1.950;2023-04-19T12:06:15;12.07;;;8.25;;
61330;SDS011;57640;52.472;-1.950;2023-04-19T12:09:21;11.50;;;8.77;;
61330;SDS011;57640;52.472;-1.950;2023-04-19T12:12:32;13.90;;;9.57;;
61330;SDS011;57640;52.472;-1.950;2023-04-19T12:15:41;12.93;;;8.85;;
61330;SDS011;57640;52.472;-1.950;2023-04-19T12:18:49;11.90;;;8.65;;
61330;SDS011;57640;52.472;-1.950;2023-04-19T12:22:03;11.40;;;8.73;;
61330;SDS011;57640;52.472;-1.950;2023-04-19T12:25:11;15.35;;;9.55;;
61330;SDS011;57640;52.472;-1.950;2023-04-19T12:28:17;11.07;;;7.63;;
61330;SDS011;57640;52.472;-1.950;2023-04-19T12:31:35;13.00;;;8.48;;
61330;SDS011;57640;52.472;-1.950;2023-04-19T12:34:56;12.15;;;8.68;;
61330;SDS011;57640;52.472;-1.950;2023-04-19T12:38:15;12.63;;;8.57;;
61330;SDS011;57640;52.472;-1.950;2023-04-19T12:41:33;12.88;;;9.10;;
61330;SDS011;57640;52.472;-1.950;2023-04-19T12:44:52;12.13;;;9.45;;
61330;SDS011;57640;52.472;-1.950;2023-04-19T12:48:10;11.90;;;8.43;;
61330;SDS011;57640;52.472;-1.950;2023-04-19T12:51:31;13.65;;;8.70;;
61330;SDS011;57640;52.472;-1.950;2023-04-19T12:54:50;15.98;;;9.10;;
61330;SDS011;57640;52.472;-1.950;2023-04-19T12:58:09;13.18;;;8.55;;
61330;SDS011;57640;52.472;-1.950;2023-04-19T13:01:27;14.95;;;8.07;;
61330;SDS011;57640;52.472;-1.950;2023-04-19T13:08:07;10.40;;;8.00;;
61330;SDS011;57640;52.472;-1.950;2023-04-19T13:11:25;11.68;;;7.18;;
61330;SDS011;57640;52.472;-1.950;2023-04-19T13:14:44;12.43;;;7.22;;
61330;SDS011;57640;52.472;-1.950;2023-04-19T13:18:05;10.98;;;7.60;;
61330;SDS011;57640;52.472;-1.950;2023-04-19T13:21:24;13.60;;;7.35;;
61330;SDS011;57640;52.472;-1.950;2023-04-19T13:24:45;10.30;;;6.63;;
61330;SDS011;57640;52.472;-1.950;2023-04-19T13:28:04;11.43;;;7.20;;
61330;SDS011;57640;52.472;-1.950;2023-04-19T13:31:22;12.48;;;6.85;;
61330;SDS011;57640;52.472;-1.950;2023-04-19T13:34:40;10.60;;;6.07;;
61330;SDS011;57640;52.472;-1.950;2023-04-19T13:41:20;12.57;;;6.93;;
61330;SDS011;57640;52.472;-1.950;2023-04-19T13:44:38;11.52;;;6.85;;
61330;SDS011;57640;52.472;-1.950;2023-04-19T13:47:57;10.98;;;7.43;;
61330;SDS011;57640;52.472;-1.950;2023-04-19T13:51:15;9.93;;;6.93;;
61330;SDS011;57640;52.472;-1.950;2023-04-19T13:54:34;11.18;;;7.00;;
61330;SDS011;57640;52.472;-1.950;2023-04-19T13:57:55;8.10;;;6.13;;
61330;SDS011;57640;52.472;-1.950;2023-04-19T14:01:13;9.80;;;6.43;;
61330;SDS011;57640;52.472;-1.950;2023-04-19T14:04:32;9.35;;;6.80;;
61330;SDS011;57640;52.472;-1.950;2023-04-19T14:07:37;10.73;;;6.20;;
61330;SDS011;57640;52.472;-1.950;2023-04-19T14:10:43;8.90;;;6.60;;
61330;SDS011;57640;52.472;-1.950;2023-04-19T14:13:51;9.27;;;6.57;;
61330;SDS011;57640;52.472;-1.950;2023-04-19T14:16:56;12.10;;;6.18;;
61330;SDS011;57640;52.472;-1.950;2023-04-19T14:20:02;10.85;;;6.85;;
61330;SDS011;57640;52.472;-1.950;2023-04-19T14:23:08;10.73;;;6.70;;
61330;SDS011;57640;52.472;-1.950;2023-04-19T14:26:13;9.23;;;5.60;;
61330;SDS011;57640;52.472;-1.950;2023-04-19T14:29:21;9.80;;;6.53;;
61330;SDS011;57640;52.472;-1.950;2023-04-19T14:32:26;8.45;;;5.82;;
61330;SDS011;57640;52.472;-1.950;2023-04-19T14:35:32;8.68;;;6.20;;
61330;SDS011;57640;52.472;-1.950;2023-04-19T14:38:37;11.52;;;6.63;;
61330;SDS011;57640;52.472;-1.950;2023-04-19T14:41:42;11.18;;;6.00;;
61330;SDS011;57640;52.472;-1.950;2023-04-19T14:44:51;10.15;;;6.35;;
61330;SDS011;57640;52.472;-1.950;2023-04-19T14:47:56;12.45;;;6.80;;
61330;SDS011;57640;52.472;-1.950;2023-04-19T14:51:02;8.23;;;5.80;;
61330;SDS011;57640;52.472;-1.950;2023-04-19T14:54:07;10.45;;;5.90;;
61330;SDS011;57640;52.472;-1.950;2023-04-19T14:57:12;10.70;;;6.03;;
61330;SDS011;57640;52.472;-1.950;2023-04-19T15:00:21;13.25;;;6.57;;
61330;SDS011;57640;52.472;-1.950;2023-04-19T15:03:26;8.52;;;5.97;;
61330;SDS011;57640;52.472;-1.950;2023-04-19T15:06:31;8.35;;;5.78;;
61330;SDS011;57640;52.472;-1.950;2023-04-19T15:09:37;8.75;;;5.22;;
61330;SDS011;57640;52.472;-1.950;2023-04-19T15:12:42;6.70;;;5.07;;
61330;SDS011;57640;52.472;-1.950;2023-04-19T15:15:50;9.25;;;6.00;;
61330;SDS011;57640;52.472;-1.950;2023-04-19T15:18:56;9.25;;;5.50;;
61330;SDS011;57640;52.472;-1.950;2023-04-19T15:22:01;10.32;;;6.03;;
61330;SDS011;57640;52.472;-1.950;2023-04-19T15:25:08;8.65;;;5.90;;
61330;SDS011;57640;52.472;-1.950;2023-04-19T15:28:13;7.47;;;5.22;;
61330;SDS011;57640;52.472;-1.950;2023-04-19T15:31:21;7.70;;;5.40;;
61330;SDS011;57640;52.472;-1.950;2023-04-19T15:34:27;12.68;;;5.72;;
61330;SDS011;57640;52.472;-1.950;2023-04-19T15:37:32;8.63;;;4.97;;
61330;SDS011;57640;52.472;-1.950;2023-04-19T15:40:38;9.13;;;5.20;;
61330;SDS011;57640;52.472;-1.950;2023-04-19T15:43:43;12.32;;;5.30;;
61330;SDS011;57640;52.472;-1.950;2023-04-19T15:46:51;9.73;;;5.00;;
61330;SDS011;57640;52.472;-1.950;2023-04-19T15:49:57;10.65;;;5.60;;
61330;SDS011;57640;52.472;-1.950;2023-04-19T15:53:02;14.73;;;4.90;;
61330;SDS011;57640;52.472;-1.950;2023-04-19T15:56:08;11.45;;;4.75;;
61330;SDS011;57640;52.472;-1.950;2023-04-19T15:59:13;11.32;;;4.85;;
61330;SDS011;57640;52.472;-1.950;2023-04-19T16:02:21;11.80;;;5.45;;
61330;SDS011;57640;52.472;-1.950;2023-04-19T16:05:27;13.07;;;5.10;;
61330;SDS011;57640;52.472;-1.950;2023-04-19T16:08:32;13.25;;;5.13;;
61330;SDS011;57640;52.472;-1.950;2023-04-19T16:11:38;8.50;;;4.45;;
61330;SDS011;57640;52.472;-1.950;2023-04-19T16:14:43;8.93;;;4.85;;
61330;SDS011;57640;52.472;-1.950;2023-04-19T16:17:51;11.07;;;4.20;;
61330;SDS011;57640;52.472;-1.950;2023-04-19T16:20:56;10.03;;;4.00;;
61330;SDS011;57640;52.472;-1.950;2023-04-19T16:24:02;8.10;;;4.03;;
61330;SDS011;57640;52.472;-1.950;2023-04-19T16:27:07;6.85;;;3.70;;
61330;SDS011;57640;52.472;-1.950;2023-04-19T16:30:13;7.30;;;3.40;;
61330;SDS011;57640;52.472;-1.950;2023-04-19T16:33:21;6.72;;;3.28;;
61330;SDS011;57640;52.472;-1.950;2023-04-19T16:36:27;7.00;;;3.47;;
61330;SDS011;57640;52.472;-1.950;2023-04-19T16:39:32;7.55;;;3.50;;
61330;SDS011;57640;52.472;-1.950;2023-04-19T16:42:39;9.15;;;3.38;;
61330;SDS011;57640;52.472;-1.950;2023-04-19T16:45:44;7.43;;;3.30;;
61330;SDS011;57640;52.472;-1.950;2023-04-19T16:48:52;7.45;;;3.20;;
61330;SDS011;57640;52.472;-1.950;2023-04-19T16:52:00;7.47;;;3.00;;
61330;SDS011;57640;52.472;-1.950;2023-04-19T16:55:05;7.88;;;3.20;;
61330;SDS011;57640;52.472;-1.950;2023-04-19T16:58:11;7.93;;;3.40;;
61330;SDS011;57640;52.472;-1.950;2023-04-19T17:01:16;5.15;;;2.88;;
61330;SDS011;57640;52.472;-1.950;2023-04-19T17:04:24;7.97;;;3.28;;
61330;SDS011;57640;52.472;-1.950;2023-04-19T17:07:30;4.85;;;2.75;;
61330;SDS011;57640;52.472;-1.950;2023-04-19T17:10:35;5.22;;;3.03;;
61330;SDS011;57640;52.472;-1.950;2023-04-19T17:13:40;6.95;;;3.20;;
61330;SDS011;57640;52.472;-1.950;2023-04-19T17:16:46;4.78;;;2.55;;
61330;SDS011;57640;52.472;-1.950;2023-04-19T17:19:54;5.43;;;2.90;;
61330;SDS011;57640;52.472;-1.950;2023-04-19T17:26:05;7.95;;;2.85;;
61330;SDS011;57640;52.472;-1.950;2023-04-19T17:29:10;6.18;;;3.08;;
61330;SDS011;57640;52.472;-1.950;2023-04-19T17:32:15;4.78;;;2.80;;
61330;SDS011;57640;52.472;-1.950;2023-04-19T17:35:23;6.90;;;2.72;;
61330;SDS011;57640;52.472;-1.950;2023-04-19T17:41:35;5.60;;;3.08;;
61330;SDS011;57640;52.472;-1.950;2023-04-19T17:44:40;37.55;;;13.20;;
61330;SDS011;57640;52.472;-1.950;2023-04-19T17:47:45;316.63;;;116.28;;
61330;SDS011;57640;52.472;-1.950;2023-04-19T17:50:53;363.45;;;144.13;;
61330;SDS011;57640;52.472;-1.950;2023-04-19T17:53:59;376.75;;;150.68;;
61330;SDS011;57640;52.472;-1.950;2023-04-19T17:57:04;312.60;;;128.65;;
61330;SDS011;57640;52.472;-1.950;2023-04-19T18:00:11;269.15;;;111.13;;
61330;SDS011;57640;52.472;-1.950;2023-04-19T18:03:17;257.40;;;107.80;;
61330;SDS011;57640;52.472;-1.950;2023-04-19T18:06:25;218.45;;;94.07;;
61330;SDS011;57640;52.472;-1.950;2023-04-19T18:09:30;210.35;;;89.68;;
61330;SDS011;57640;52.472;-1.950;2023-04-19T18:12:36;219.15;;;94.13;;
61330;SDS011;57640;52.472;-1.950;2023-04-19T18:15:41;192.88;;;81.72;;
61330;SDS011;57640;52.472;-1.950;2023-04-19T18:18:46;183.57;;;77.32;;
61330;SDS011;57640;52.472;-1.950;2023-04-19T18:21:55;115.25;;;49.10;;
61330;SDS011;57640;52.472;-1.950;2023-04-19T18:25:00;137.10;;;56.50;;
61330;SDS011;57640;52.472;-1.950;2023-04-19T18:28:05;113.95;;;45.58;;
61330;SDS011;57640;52.472;-1.950;2023-04-19T18:31:11;120.70;;;49.15;;
61330;SDS011;57640;52.472;-1.950;2023-04-19T18:34:16;107.95;;;45.33;;
61330;SDS011;57640;52.472;-1.950;2023-04-19T18:37:24;97.63;;;40.92;;
61330;SDS011;57640;52.472;-1.950;2023-04-19T18:40:29;82.60;;;34.72;;
61330;SDS011;57640;52.472;-1.950;2023-04-19T18:43:35;80.35;;;31.70;;
61330;SDS011;57640;52.472;-1.950;2023-04-19T18:46:40;64.90;;;27.02;;
61330;SDS011;57640;52.472;-1.950;2023-04-19T18:49:45;66.30;;;27.17;;
61330;SDS011;57640;52.472;-1.950;2023-04-19T18:52:53;62.97;;;24.63;;